Terminal Aerodrome Forecast
Issued by NWS

Current Version | Previous Version | Text Only | Print | Product List | Glossary On
Versions: 1 2 3 4 5 6 7 8 9 10 11 12 13 14
000
FTUS45 KTFX 291100
TAFLWT
TAF
KLWT 291120Z 2912/3012 14006KT P6SM VCFG SCT050
      TEMPO 2912/2914 4SM BR
     FM292200 22007KT P6SM SCT150=

USA.gov is the U.S. government's official web portal to all federal, state and local government web resources and services.